Flight Track Log - Related Links

Times and Time Zones

All times are in EDT time to prevent confusion due to time zone crossing. See the SKW6345 flight status page for this flight to view local times or setup timezone preferences in your user account.

Time Position Orientation Groundspeed Altitude Reporting Facility
EDT Latitude Longitude Course Direction KTS MPH feet Rate Location/Type
Sun 02:14:01 PM 32.8833 -97.0500 293° West 194 223 1,300  Level Dallas / Fort Worth TRACON
Sun 02:15:07 PM 32.8167 -97.0500 180° South 231 266 3,400 1,810 Climbing Dallas / Fort Worth TRACON
Sun 02:16:07 PM 32.7667 -97.0833 209° Southwest 261 300 5,100 2,200 Climbing Dallas / Fort Worth TRACON
Sun 02:17:00 PM 32.7291 -97.3801 293° West  Level FlightAware Approximate
Sun 02:17:07 PM 32.7667 -97.1667 270° West 283 326 7,800  Level Dallas / Fort Worth TRACON
Sun 02:18:00 PM 32.7761 -97.5096 293° West  Level FlightAware Approximate
Sun 02:18:19 PM 32.7831 -97.2800 280° West 526 605 10,400  Level Fort Worth Center
Sun 02:19:00 PM 32.8225 -97.6396 293° West  Level FlightAware Approximate
Sun 02:19:19 PM 32.8000 -97.3714 282° West 376 433 12,300  Level Fort Worth Center
Sun 02:20:19 PM 32.8208 -97.4875 282° West 330 380 14,800 2,200 Climbing Fort Worth Center
Sun 02:21:19 PM 32.8375 -97.5817 282° West 324 373 16,700 1,750 Climbing Fort Worth Center
Sun 02:22:19 PM 32.8603 -97.7078 282° West 344 396 18,300 1,600 Climbing Fort Worth Center
Sun 02:23:19 PM 32.8639 -97.8167 272° West 362 417 19,900 1,650 Climbing Fort Worth Center
Sun 02:24:19 PM 32.8636 -97.9500 270° West 368 423 21,600 1,550 Climbing Fort Worth Center
Sun 02:25:19 PM 32.8631 -98.0664 270° West 378 435 23,000 1,350 Climbing Fort Worth Center
Sun 02:26:19 PM 32.8622 -98.2147 270° West 399 459 24,300 1,350 Climbing Fort Worth Center
Sun 02:27:19 PM 32.8611 -98.3483 269° West 404 465 25,700 1,350 Climbing Fort Worth Center
Sun 02:28:19 PM 32.8581 -98.4669 268° West 404 465 27,000 1,250 Climbing Fort Worth Center
Sun 02:29:19 PM 32.8569 -98.6031 269° West 404 465 28,200 1,200 Climbing Fort Worth Center
Sun 02:30:19 PM 32.8556 -98.7414 269° West 409 471 29,400 1,160 Climbing Fort Worth Center
Sun 02:31:18 PM 32.8539 -98.8775 269° West 414 476 30,500 950 Climbing Fort Worth Center
Sun 02:32:19 PM 32.8481 -99.0183 267° West 420 483 31,300 843 Climbing Fort Worth Center
Sun 02:33:19 PM 32.8483 -99.1617 270° West 420 483 32,200 950 Climbing Fort Worth Center
Sun 02:34:19 PM 32.8461 -99.3025 269° West 420 483 33,200 1,100 Climbing Fort Worth Center
Sun 02:35:19 PM 32.8439 -99.4436 269° West 425 489 34,400 1,200 Climbing Fort Worth Center
Sun 02:36:19 PM 32.8458 -99.5769 271° West 419 482 35,600 1,160 Climbing Fort Worth Center
Sun 02:37:18 PM 32.8833 -99.6992 290° West 395 455 36,700 908 Climbing Fort Worth Center
Sun 02:38:18 PM 32.9272 -99.8192 294° West 395 455 37,400 545 Climbing Fort Worth Center
Sun 02:39:19 PM 32.9728 -99.9367 295° West 395 455 37,800 300 Climbing Fort Worth Center
Sun 02:40:18 PM 33.0142 -100.0519 293° West 390 449 38,000 101 Climbing Fort Worth Center
Sun 02:41:18 PM 33.0597 -100.1697 295° West 390 449 38,000  Level Fort Worth Center
Sun 02:42:18 PM 33.1072 -100.2928 295° West 396 456 38,000  Level Fort Worth Center
Sun 02:43:18 PM 33.1522 -100.4158 294° West 401 461 38,000  Level Fort Worth Center
Sun 02:44:18 PM 33.1992 -100.5389 295° West 401 461 38,000  Level Fort Worth Center
Sun 02:45:19 PM 33.2461 -100.6647 294° West 401 461 38,000  Level Fort Worth Center
Sun 02:46:19 PM 33.2950 -100.7908 295° West 406 467 38,000  Level Fort Worth Center
Sun 02:47:18 PM 33.3417 -100.9169 294° West 411 473 38,000  Level Fort Worth Center
Sun 02:48:19 PM 33.3861 -101.0406 293° West 404 465 38,000  Level Fort Worth Center
Sun 02:49:18 PM 33.4383 -101.1797 294° West 404 465 38,000  Level Fort Worth Center
Sun 02:50:18 PM 33.4786 -101.2933 293° West 410 472 38,000  Level Fort Worth Center
Sun 02:51:19 PM 33.5306 -101.4328 294° West 410 472 38,000  Level Fort Worth Center
Sun 02:52:18 PM 33.5728 -101.5469 294° West 416 479 38,000  Level Fort Worth Center
Sun 02:53:18 PM 33.6267 -101.6892 295° West 416 479 38,000  Level Fort Worth Center
Sun 02:54:19 PM 33.6722 -101.8186 293° West 421 484 38,000  Level Fort Worth Center
Sun 02:55:18 PM 33.7175 -101.9531 292° West 429 494 38,000  Level Fort Worth Center
Sun 02:56:18 PM 33.7394 -102.0917 281° West 429 494 38,000  Level Fort Worth Center
Sun 02:58:45 PM 33.7994 -102.4044 283° West 421 484 38,000  Level Albuquerque Center
Sun 02:59:48 PM 33.8250 -102.5425 283° West 424 488 38,000  Level Albuquerque Center
Sun 03:00:50 PM 33.8558 -102.7081 283° West 425 489 38,000  Level Albuquerque Center
Sun 03:01:52 PM 33.8814 -102.8444 283° West 422 486 38,000  Level Albuquerque Center
Sun 03:02:54 PM 33.9061 -102.9811 282° West 421 484 38,000  Level Albuquerque Center
Sun 03:03:56 PM 33.9325 -103.1161 283° West 418 481 38,000  Level Albuquerque Center
Sun 03:04:58 PM 33.9586 -103.2542 283° West 422 486 38,000  Level Albuquerque Center
Sun 03:06:00 PM 33.9811 -103.3953 281° West 426 490 38,000  Level Albuquerque Center
Sun 03:07:02 PM 34.0100 -103.5672 282° West 434 499 38,000  Level Albuquerque Center
Sun 03:08:04 PM 34.0353 -103.7000 283° West 428 493 38,000  Level Albuquerque Center
Sun 03:09:06 PM 34.0600 -103.8425 282° West 427 491 38,000  Level Albuquerque Center
Sun 03:10:08 PM 34.0847 -103.9872 282° West 432 497 38,000  Level Albuquerque Center
Sun 03:11:10 PM 34.1136 -104.1506 282° West 426 490 38,000  Level Albuquerque Center
Sun 03:12:12 PM 34.1378 -104.2933 282° West 426 490 38,000  Level Albuquerque Center
Sun 03:13:14 PM 34.1614 -104.4339 282° West 424 488 38,000  Level Albuquerque Center
Sun 03:14:16 PM 34.1856 -104.5744 282° West 424 488 38,000  Level Albuquerque Center
Sun 03:15:18 PM 34.2100 -104.7131 282° West 419 482 38,000  Level Albuquerque Center
Sun 03:16:20 PM 34.2325 -104.8528 281° West 419 482 38,000  Level Albuquerque Center
Sun 03:17:22 PM 34.2561 -104.9933 282° West 421 484 38,000  Level Albuquerque Center
Sun 03:18:24 PM 34.2792 -105.1333 281° West 422 486 38,000  Level Albuquerque Center
Sun 03:19:26 PM 34.3053 -105.2947 281° West 416 479 38,000  Level Albuquerque Center
Sun 03:20:28 PM 34.3286 -105.4358 281° West 420 483 38,000  Level Albuquerque Center
Sun 03:21:30 PM 34.3514 -105.5775 281° West 423 487 38,000  Level Albuquerque Center
Sun 03:22:32 PM 34.3711 -105.7217 279° West 428 493 38,000  Level Albuquerque Center
Sun 03:23:34 PM 34.3794 -105.8667 274° West 428 493 38,000  Level Albuquerque Center
Sun 03:24:36 PM 34.3897 -106.0125 275° West 430 495 38,000  Level Albuquerque Center
Sun 03:25:38 PM 34.3992 -106.1606 274° West 435 501 38,000  Level Albuquerque Center
Sun 03:26:40 PM 34.4064 -106.3047 274° West 439 505 38,000  Level Albuquerque Center
Sun 03:27:42 PM 34.4156 -106.4528 274° West 440 506 38,000  Level Albuquerque Center
Sun 03:28:44 PM 34.4272 -106.6286 275° West 437 503 38,000  Level Albuquerque Center
Sun 03:29:46 PM 34.4356 -106.7794 274° West 443 510 38,000  Level Albuquerque Center
Sun 03:30:48 PM 34.4439 -106.9294 274° West 445 512 38,000  Level Albuquerque Center
Sun 03:31:50 PM 34.4514 -107.0814 273° West 448 516 38,000  Level Albuquerque Center
Sun 03:32:52 PM 34.4594 -107.2286 274° West 441 507 38,000  Level Albuquerque Center
Sun 03:33:54 PM 34.4675 -107.3756 274° West 437 503 38,000  Level Albuquerque Center
Sun 03:34:56 PM 34.4686 -107.5239 271° West 437 503 38,000  Level Albuquerque Center
Sun 03:35:58 PM 34.4667 -107.6981 269° West 434 499 38,000  Level Albuquerque Center
Sun 03:37:00 PM 34.4656 -107.8447 270° West 434 499 38,000  Level Albuquerque Center
Sun 03:38:02 PM 34.4628 -107.9900 269° West 432 497 38,000  Level Albuquerque Center
Sun 03:39:04 PM 34.4608 -108.1356 269° West 432 497 38,000  Level Albuquerque Center
Sun 03:40:06 PM 34.4597 -108.2828 270° West 436 502 38,000  Level Albuquerque Center
Sun 03:41:09 PM 34.4575 -108.4306 269° West 438 504 38,000  Level Albuquerque Center
Sun 03:42:11 PM 34.4547 -108.6092 269° West 437 503 38,000  Level Albuquerque Center
Sun 03:43:13 PM 34.4511 -108.7514 268° West 437 503 38,000  Level Albuquerque Center
Sun 03:44:15 PM 34.4492 -108.8933 269° West 439 505 38,000  Level Albuquerque Center
Sun 03:45:17 PM 34.4447 -109.0589 268° West 440 506 38,000  Level Albuquerque Center
Sun 03:46:19 PM 34.4422 -109.2011 269° West 440 506 38,000  Level Albuquerque Center
Sun 03:47:21 PM 34.4378 -109.3692 268° West 443 510 38,000  Level Albuquerque Center
Sun 03:48:23 PM 34.4339 -109.5111 268° West 442 509 38,000  Level Albuquerque Center
Sun 03:49:25 PM 34.4303 -109.6764 269° West 440 506 38,000  Level Albuquerque Center
Sun 03:50:27 PM 34.4267 -109.8186 268° West 440 506 38,000  Level Albuquerque Center
Sun 03:51:29 PM 34.4217 -109.9847 268° West 441 507 38,000  Level Albuquerque Center
Sun 03:52:31 PM 34.4178 -110.1281 268° West 442 509 38,000  Level Albuquerque Center
Sun 03:53:33 PM 34.4131 -110.2947 268° West 443 510 38,000  Level Albuquerque Center
Sun 03:54:35 PM 34.4086 -110.4281 268° West 446 513 38,000  Level Albuquerque Center
Sun 03:55:37 PM 34.4042 -110.5772 268° West 448 516 38,000  Level Albuquerque Center
Sun 03:56:39 PM 34.3989 -110.7256 268° West 445 512 38,000  Level Albuquerque Center
Sun 03:58:31 PM 34.3844 -111.0219 267° West 443 510 38,000  Level Los Angeles Center
Sun 03:59:33 PM 34.3792 -111.1703 268° West 444 511 38,000  Level Los Angeles Center
Sun 04:00:35 PM 34.3733 -111.3183 267° West 444 511 38,000  Level Los Angeles Center
Sun 04:01:38 PM 34.3669 -111.4667 267° West 443 510 38,000  Level Los Angeles Center
Sun 04:02:40 PM 34.3592 -111.6436 267° West 444 511 38,000  Level Los Angeles Center
Sun 04:03:53 PM 34.3522 -111.8189 267° West 442 509 38,000  Level Albuquerque Center
Sun 04:04:55 PM 34.3458 -111.9661 267° West 444 511 38,000  Level Albuquerque Center
Sun 04:05:57 PM 34.3383 -112.1114 266° West 440 506 38,000  Level Albuquerque Center
Sun 04:06:59 PM 34.3317 -112.2575 267° West 439 505 38,000  Level Albuquerque Center
Sun 04:08:01 PM 34.3233 -112.4319 267° West 437 503 38,000  Level Albuquerque Center
Sun 04:09:03 PM 34.3153 -112.5792 266° West 439 505 38,000  Level Albuquerque Center
Sun 04:10:05 PM 34.3072 -112.7253 266° West 438 504 38,000  Level Albuquerque Center
Sun 04:11:07 PM 34.2989 -112.8711 266° West 438 504 38,000  Level Albuquerque Center
Sun 04:12:09 PM 34.2908 -113.0164 266° West 436 502 38,000  Level Albuquerque Center
Sun 04:13:11 PM 34.2806 -113.1925 266° West 438 504 38,000  Level Albuquerque Center
Sun 04:14:13 PM 34.2722 -113.3375 266° West 436 502 38,000  Level Albuquerque Center
Sun 04:15:15 PM 34.2647 -113.4833 266° West 436 502 38,000  Level Albuquerque Center
Sun 04:16:17 PM 34.2572 -113.6247 266° West 436 502 38,000  Level Albuquerque Center
Sun 04:17:19 PM 34.2469 -113.7975 266° West 431 496 38,000  Level Albuquerque Center
Sun 04:18:21 PM 34.2372 -113.9417 265° West 429 494 38,000  Level Albuquerque Center
Sun 04:19:24 PM 34.2300 -114.0819 266° West 422 486 38,000  Level Albuquerque Center
Sun 04:20:25 PM 34.2194 -114.2258 265° West 426 490 38,000  Level Albuquerque Center
Sun 04:21:27 PM 34.2111 -114.3658 266° West 422 486 38,000  Level Albuquerque Center
Sun 04:22:20 PM 34.2044 -114.4800 266° West 416 479 38,000  Level Los Angeles Center
Sun 04:23:22 PM 34.1956 -114.6178 266° West 413 475 38,000  Level Los Angeles Center
Sun 04:24:24 PM 34.1833 -114.7858 265° West 418 481 38,000  Level Los Angeles Center
Sun 04:25:26 PM 34.1736 -114.9269 265° West 423 487 38,000  Level Los Angeles Center
Sun 04:26:28 PM 34.1639 -115.0711 265° West 428 493 38,000  Level Los Angeles Center
Sun 04:27:30 PM 34.1531 -115.2172 265° West 436 502 38,000  Level Los Angeles Center
Sun 04:28:32 PM 34.1428 -115.3636 265° West 439 505 38,000  Level Los Angeles Center
Sun 04:29:34 PM 34.1311 -115.5372 265° West 435 501 38,000  Level Los Angeles Center
Sun 04:30:37 PM 34.1192 -115.6789 264° West 430 495 38,000  Level Los Angeles Center
Sun 04:31:39 PM 34.1064 -115.8197 264° West 424 488 38,000  Level Los Angeles Center
Sun 04:32:41 PM 34.0847 -115.9561 259° West 418 481 38,000 -919 Level Los Angeles Center
Sun 04:33:43 PM 34.0636 -116.0953 260° West 420 483 36,100 -2,274 Descending Los Angeles Center
Sun 04:34:45 PM 34.0431 -116.2364 260° West 428 493 33,300 -3,048 Descending Los Angeles Center
Sun 04:35:47 PM 34.0167 -116.4103 260° West 440 506 29,800 -3,000 Descending Los Angeles Center
Sun 04:36:49 PM 34.0006 -116.5519 262° West 432 497 27,100 -2,613 Descending Los Angeles Center
Sun 04:37:51 PM 33.9892 -116.6919 264° West 423 487 24,400 -2,516 Descending Los Angeles Center
Sun 04:38:53 PM 33.9775 -116.8261 264° West 411 473 21,900 -2,579 Descending Los Angeles Center
Sun 04:39:38 PM 33.9667 -116.9333 263° West 383 441 19,800 -2,457 Descending Southern California TRACON
Sun 04:40:38 PM 33.9500 -117.0667 261° West 390 449 17,600 -1,850 Descending Southern California TRACON
Sun 04:41:38 PM 33.9500 -117.2000 270° West 396 456 16,100 -1,400 Descending Southern California TRACON
Sun 04:42:38 PM 33.9333 -117.3333 261° West 384 442 14,800 -1,339 Descending Southern California TRACON
Sun 04:43:39 PM 33.9500 -117.4500 280° West 359 413 13,400 -1,240 Descending Southern California TRACON
Sun 04:44:39 PM 34.0000 -117.5500 301° West 310 357 12,300 -1,200 Descending Southern California TRACON
Sun 04:45:39 PM 34.0167 -117.6500 281° West 342 394 11,000 -1,250 Descending Southern California TRACON
Sun 04:46:39 PM 34.0000 -117.7500 259° West 294 338 9,800 -1,316 Descending Southern California TRACON
Sun 04:47:33 PM 33.9833 -117.8333 256° West 294 338 8,500 -1,304 Descending Southern California TRACON
Sun 04:48:34 PM 33.9833 -117.9333 270° West 290 334 7,300 -1,289 Descending Southern California TRACON
Sun 04:49:34 PM 33.9667 -118.0167 256° West 286 329 5,900 -1,500 Descending Southern California TRACON
Sun 04:50:34 PM 33.9667 -118.1167 270° West 250 288 4,300 -1,257 Descending Southern California TRACON
Sun 04:51:19 PM 33.9608 -118.1608 261° West 238 274 3,700 -800 Descending Los Angeles Center

Login

Don't have an account? Register now (free) for customized features, flight alerts, and more!